sensor_id;sensor_type;location;lat;lon;timestamp;temperature;humidity
2723;DHT22;1369;53.216;10.396;2023-07-13T00:01:42;17.90;99.90
2723;DHT22;1369;53.216;10.396;2023-07-13T00:04:08;17.90;99.90
2723;DHT22;1369;53.216;10.396;2023-07-13T00:06:33;17.90;99.90
2723;DHT22;1369;53.216;10.396;2023-07-13T00:09:00;17.90;99.90
2723;DHT22;1369;53.216;10.396;2023-07-13T00:11:27;17.80;99.90
2723;DHT22;1369;53.216;10.396;2023-07-13T00:13:52;17.80;99.90
2723;DHT22;1369;53.216;10.396;2023-07-13T00:16:18;17.80;99.90
2723;DHT22;1369;53.216;10.396;2023-07-13T00:18:44;17.70;99.90
2723;DHT22;1369;53.216;10.396;2023-07-13T00:21:10;17.70;99.90
2723;DHT22;1369;53.216;10.396;2023-07-13T00:23:37;17.60;99.90
2723;DHT22;1369;53.216;10.396;2023-07-13T00:26:05;17.50;99.90
2723;DHT22;1369;53.216;10.396;2023-07-13T00:28:31;17.50;99.90
2723;DHT22;1369;53.216;10.396;2023-07-13T00:30:56;17.40;99.90
2723;DHT22;1369;53.216;10.396;2023-07-13T00:33:22;17.40;99.90
2723;DHT22;1369;53.216;10.396;2023-07-13T00:35:48;17.40;99.90
2723;DHT22;1369;53.216;10.396;2023-07-13T00:38:14;17.40;99.90
2723;DHT22;1369;53.216;10.396;2023-07-13T00:40:40;17.30;99.90
2723;DHT22;1369;53.216;10.396;2023-07-13T00:43:32;17.30;99.90
2723;DHT22;1369;53.216;10.396;2023-07-13T00:46:30;17.30;99.90
2723;DHT22;1369;53.216;10.396;2023-07-13T00:49:02;17.20;99.90
2723;DHT22;1369;53.216;10.396;2023-07-13T00:51:34;17.10;99.90
2723;DHT22;1369;53.216;10.396;2023-07-13T00:54:04;17.00;99.90
2723;DHT22;1369;53.216;10.396;2023-07-13T00:56:30;16.90;99.90
2723;DHT22;1369;53.216;10.396;2023-07-13T00:58:57;16.90;99.90
2723;DHT22;1369;53.216;10.396;2023-07-13T01:01:23;16.80;99.90
2723;DHT22;1369;53.216;10.396;2023-07-13T01:03:48;16.80;99.90
2723;DHT22;1369;53.216;10.396;2023-07-13T01:06:14;16.70;99.90
2723;DHT22;1369;53.216;10.396;2023-07-13T01:08:39;16.60;99.90
2723;DHT22;1369;53.216;10.396;2023-07-13T01:11:05;16.60;99.90
2723;DHT22;1369;53.216;10.396;2023-07-13T01:13:33;16.50;99.90
2723;DHT22;1369;53.216;10.396;2023-07-13T01:16:02;16.50;99.90
2723;DHT22;1369;53.216;10.396;2023-07-13T01:18:29;16.40;99.90
2723;DHT22;1369;53.216;10.396;2023-07-13T01:21:04;16.50;99.90
2723;DHT22;1369;53.216;10.396;2023-07-13T01:23:31;16.50;99.90
2723;DHT22;1369;53.216;10.396;2023-07-13T01:25:58;16.40;99.90
2723;DHT22;1369;53.216;10.396;2023-07-13T01:31:45;16.30;99.90
2723;DHT22;1369;53.216;10.396;2023-07-13T01:34:11;16.20;99.90
2723;DHT22;1369;53.216;10.396;2023-07-13T01:36:37;16.20;99.90
2723;DHT22;1369;53.216;10.396;2023-07-13T01:39:03;16.20;99.90
2723;DHT22;1369;53.216;10.396;2023-07-13T01:41:29;16.20;99.90
2723;DHT22;1369;53.216;10.396;2023-07-13T01:43:54;16.10;99.90
2723;DHT22;1369;53.216;10.396;2023-07-13T01:46:20;16.10;99.90
2723;DHT22;1369;53.216;10.396;2023-07-13T01:48:45;16.10;99.90
2723;DHT22;1369;53.216;10.396;2023-07-13T01:51:11;16.10;99.90
2723;DHT22;1369;53.216;10.396;2023-07-13T01:53:36;16.00;99.90
2723;DHT22;1369;53.216;10.396;2023-07-13T01:56:02;15.90;99.90
2723;DHT22;1369;53.216;10.396;2023-07-13T01:58:27;15.90;99.90
2723;DHT22;1369;53.216;10.396;2023-07-13T02:00:53;15.90;99.90
2723;DHT22;1369;53.216;10.396;2023-07-13T02:03:18;15.90;99.90
2723;DHT22;1369;53.216;10.396;2023-07-13T02:05:45;15.90;99.90
2723;DHT22;1369;53.216;10.396;2023-07-13T02:08:10;15.80;99.90
2723;DHT22;1369;53.216;10.396;2023-07-13T02:10:37;15.80;99.90
2723;DHT22;1369;53.216;10.396;2023-07-13T02:13:05;15.80;99.90
2723;DHT22;1369;53.216;10.396;2023-07-13T02:15:31;15.70;99.90
2723;DHT22;1369;53.216;10.396;2023-07-13T02:17:56;15.80;99.90
2723;DHT22;1369;53.216;10.396;2023-07-13T02:20:22;15.70;99.90
2723;DHT22;1369;53.216;10.396;2023-07-13T02:22:47;15.60;99.90
2723;DHT22;1369;53.216;10.396;2023-07-13T02:25:13;15.50;99.90
2723;DHT22;1369;53.216;10.396;2023-07-13T02:27:39;15.50;99.90
2723;DHT22;1369;53.216;10.396;2023-07-13T02:30:05;15.50;99.90
2723;DHT22;1369;53.216;10.396;2023-07-13T02:32:31;15.40;99.90
2723;DHT22;1369;53.216;10.396;2023-07-13T02:34:57;15.40;99.90
2723;DHT22;1369;53.216;10.396;2023-07-13T02:37:23;15.40;99.90
2723;DHT22;1369;53.216;10.396;2023-07-13T02:39:48;15.40;99.90
2723;DHT22;1369;53.216;10.396;2023-07-13T02:42:13;15.30;99.90
2723;DHT22;1369;53.216;10.396;2023-07-13T02:44:39;15.30;99.90
2723;DHT22;1369;53.216;10.396;2023-07-13T02:47:05;15.20;99.90
2723;DHT22;1369;53.216;10.396;2023-07-13T02:49:30;15.10;99.90
2723;DHT22;1369;53.216;10.396;2023-07-13T02:51:56;15.20;99.90
2723;DHT22;1369;53.216;10.396;2023-07-13T02:54:21;15.20;99.90
2723;DHT22;1369;53.216;10.396;2023-07-13T02:56:47;15.10;99.90
2723;DHT22;1369;53.216;10.396;2023-07-13T02:59:12;15.10;99.90
2723;DHT22;1369;53.216;10.396;2023-07-13T03:01:38;15.10;99.90
2723;DHT22;1369;53.216;10.396;2023-07-13T03:04:03;15.10;99.90
2723;DHT22;1369;53.216;10.396;2023-07-13T03:06:31;15.20;99.90
2723;DHT22;1369;53.216;10.396;2023-07-13T03:08:57;15.10;99.90
2723;DHT22;1369;53.216;10.396;2023-07-13T03:11:22;15.00;99.90
2723;DHT22;1369;53.216;10.396;2023-07-13T03:13:48;15.00;99.90
2723;DHT22;1369;53.216;10.396;2023-07-13T03:16:15;15.00;99.90
2723;DHT22;1369;53.216;10.396;2023-07-13T03:18:41;15.00;99.90
2723;DHT22;1369;53.216;10.396;2023-07-13T03:21:07;15.00;99.90
2723;DHT22;1369;53.216;10.396;2023-07-13T03:23:33;15.00;99.90
2723;DHT22;1369;53.216;10.396;2023-07-13T03:28:28;15.10;99.90
2723;DHT22;1369;53.216;10.396;2023-07-13T03:31:04;15.00;99.90
2723;DHT22;1369;53.216;10.396;2023-07-13T03:33:31;15.00;99.90
2723;DHT22;1369;53.216;10.396;2023-07-13T03:35:56;15.00;99.90
2723;DHT22;1369;53.216;10.396;2023-07-13T03:38:22;15.10;99.90
2723;DHT22;1369;53.216;10.396;2023-07-13T03:40:47;15.10;99.90
2723;DHT22;1369;53.216;10.396;2023-07-13T03:43:14;15.00;99.90
2723;DHT22;1369;53.216;10.396;2023-07-13T03:45:39;15.00;99.90
2723;DHT22;1369;53.216;10.396;2023-07-13T03:48:05;15.10;99.90
2723;DHT22;1369;53.216;10.396;2023-07-13T03:50:31;15.10;99.90
2723;DHT22;1369;53.216;10.396;2023-07-13T03:52:57;15.10;99.90
2723;DHT22;1369;53.216;10.396;2023-07-13T03:55:23;15.10;99.90
2723;DHT22;1369;53.216;10.396;2023-07-13T03:57:54;15.10;99.90
2723;DHT22;1369;53.216;10.396;2023-07-13T04:00:22;15.10;99.90
2723;DHT22;1369;53.216;10.396;2023-07-13T04:02:48;15.20;99.90
2723;DHT22;1369;53.216;10.396;2023-07-13T04:05:15;15.30;99.90
2723;DHT22;1369;53.216;10.396;2023-07-13T04:07:40;15.40;99.90
2723;DHT22;1369;53.216;10.396;2023-07-13T04:10:06;15.40;99.90
2723;DHT22;1369;53.216;10.396;2023-07-13T04:12:31;15.40;99.90
2723;DHT22;1369;53.216;10.396;2023-07-13T04:14:57;15.40;99.90
2723;DHT22;1369;53.216;10.396;2023-07-13T04:17:22;15.40;99.90
2723;DHT22;1369;53.216;10.396;2023-07-13T04:19:48;15.40;99.90
2723;DHT22;1369;53.216;10.396;2023-07-13T04:22:14;15.50;99.90
2723;DHT22;1369;53.216;10.396;2023-07-13T04:24:39;15.60;99.90
2723;DHT22;1369;53.216;10.396;2023-07-13T04:27:06;15.70;99.90
2723;DHT22;1369;53.216;10.396;2023-07-13T04:29:31;15.90;99.90
2723;DHT22;1369;53.216;10.396;2023-07-13T04:31:57;15.90;99.90
2723;DHT22;1369;53.216;10.396;2023-07-13T04:34:22;16.10;99.90
2723;DHT22;1369;53.216;10.396;2023-07-13T04:36:48;16.10;99.90
2723;DHT22;1369;53.216;10.396;2023-07-13T04:39:13;16.10;99.90
2723;DHT22;1369;53.216;10.396;2023-07-13T04:41:39;16.10;99.90
2723;DHT22;1369;53.216;10.396;2023-07-13T04:44:04;16.20;99.90
2723;DHT22;1369;53.216;10.396;2023-07-13T04:46:30;16.40;99.90
2723;DHT22;1369;53.216;10.396;2023-07-13T04:48:55;16.50;99.90
2723;DHT22;1369;53.216;10.396;2023-07-13T04:51:22;16.60;99.90
2723;DHT22;1369;53.216;10.396;2023-07-13T04:53:47;16.60;99.90
2723;DHT22;1369;53.216;10.396;2023-07-13T04:56:13;16.60;99.90
2723;DHT22;1369;53.216;10.396;2023-07-13T04:58:38;16.70;99.90
2723;DHT22;1369;53.216;10.396;2023-07-13T05:01:06;16.70;99.90
2723;DHT22;1369;53.216;10.396;2023-07-13T05:03:32;16.80;99.90
2723;DHT22;1369;53.216;10.396;2023-07-13T05:06:00;17.00;99.90
2723;DHT22;1369;53.216;10.396;2023-07-13T05:08:26;17.20;99.90
2723;DHT22;1369;53.216;10.396;2023-07-13T05:10:52;17.30;99.90
2723;DHT22;1369;53.216;10.396;2023-07-13T05:13:18;17.20;99.90
2723;DHT22;1369;53.216;10.396;2023-07-13T05:15:44;17.10;99.90
2723;DHT22;1369;53.216;10.396;2023-07-13T05:18:10;17.00;99.90
2723;DHT22;1369;53.216;10.396;2023-07-13T05:20:35;17.10;99.90
2723;DHT22;1369;53.216;10.396;2023-07-13T05:23:01;17.00;99.90
2723;DHT22;1369;53.216;10.396;2023-07-13T05:25:26;17.10;99.90
2723;DHT22;1369;53.216;10.396;2023-07-13T05:27:52;17.10;99.90
2723;DHT22;1369;53.216;10.396;2023-07-13T05:30:17;17.10;99.90
2723;DHT22;1369;53.216;10.396;2023-07-13T05:32:43;17.10;99.90
2723;DHT22;1369;53.216;10.396;2023-07-13T05:35:08;17.10;99.90
2723;DHT22;1369;53.216;10.396;2023-07-13T05:37:34;17.10;99.90
2723;DHT22;1369;53.216;10.396;2023-07-13T05:40:00;17.10;99.90
2723;DHT22;1369;53.216;10.396;2023-07-13T05:42:25;17.10;99.90
2723;DHT22;1369;53.216;10.396;2023-07-13T05:44:51;17.10;99.90
2723;DHT22;1369;53.216;10.396;2023-07-13T05:47:16;17.10;99.90
2723;DHT22;1369;53.216;10.396;2023-07-13T05:49:42;17.20;99.90
2723;DHT22;1369;53.216;10.396;2023-07-13T05:52:07;17.20;99.90
2723;DHT22;1369;53.216;10.396;2023-07-13T05:54:33;17.20;99.90
2723;DHT22;1369;53.216;10.396;2023-07-13T05:56:59;17.30;99.90
2723;DHT22;1369;53.216;10.396;2023-07-13T05:59:25;17.30;99.90
2723;DHT22;1369;53.216;10.396;2023-07-13T06:01:51;17.30;99.90
2723;DHT22;1369;53.216;10.396;2023-07-13T06:04:18;17.40;99.90
2723;DHT22;1369;53.216;10.396;2023-07-13T06:06:43;17.40;99.90
2723;DHT22;1369;53.216;10.396;2023-07-13T06:09:08;17.50;99.90
2723;DHT22;1369;53.216;10.396;2023-07-13T06:11:34;17.50;99.90
2723;DHT22;1369;53.216;10.396;2023-07-13T06:14:00;17.60;99.90
2723;DHT22;1369;53.216;10.396;2023-07-13T06:16:25;17.60;99.90
2723;DHT22;1369;53.216;10.396;2023-07-13T06:18:51;17.60;99.90
2723;DHT22;1369;53.216;10.396;2023-07-13T06:21:19;17.60;99.90
2723;DHT22;1369;53.216;10.396;2023-07-13T06:23:47;17.70;99.90
2723;DHT22;1369;53.216;10.396;2023-07-13T06:26:16;17.80;99.90
2723;DHT22;1369;53.216;10.396;2023-07-13T06:28:42;17.90;99.90
2723;DHT22;1369;53.216;10.396;2023-07-13T06:31:10;18.00;99.90
2723;DHT22;1369;53.216;10.396;2023-07-13T06:33:36;18.00;99.90
2723;DHT22;1369;53.216;10.396;2023-07-13T06:36:03;18.10;99.90
2723;DHT22;1369;53.216;10.396;2023-07-13T06:38:29;18.10;99.90
2723;DHT22;1369;53.216;10.396;2023-07-13T06:40:54;18.20;99.90
2723;DHT22;1369;53.216;10.396;2023-07-13T06:43:20;18.30;99.90
2723;DHT22;1369;53.216;10.396;2023-07-13T06:45:48;18.30;99.90
2723;DHT22;1369;53.216;10.396;2023-07-13T06:48:19;18.40;99.90
2723;DHT22;1369;53.216;10.396;2023-07-13T06:50:45;18.40;99.90
2723;DHT22;1369;53.216;10.396;2023-07-13T06:53:11;18.70;99.90
2723;DHT22;1369;53.216;10.396;2023-07-13T06:55:37;18.80;99.90
2723;DHT22;1369;53.216;10.396;2023-07-13T06:58:03;18.90;99.90
2723;DHT22;1369;53.216;10.396;2023-07-13T07:00:29;18.90;99.90
2723;DHT22;1369;53.216;10.396;2023-07-13T07:02:54;19.00;99.90
2723;DHT22;1369;53.216;10.396;2023-07-13T07:05:20;19.00;99.90
2723;DHT22;1369;53.216;10.396;2023-07-13T07:07:50;19.10;99.90
2723;DHT22;1369;53.216;10.396;2023-07-13T07:10:16;19.20;99.90
2723;DHT22;1369;53.216;10.396;2023-07-13T07:12:42;19.30;99.90
2723;DHT22;1369;53.216;10.396;2023-07-13T07:15:08;20.00;99.90
2723;DHT22;1369;53.216;10.396;2023-07-13T07:17:33;21.60;99.90
2723;DHT22;1369;53.216;10.396;2023-07-13T07:19:59;23.50;99.90
2723;DHT22;1369;53.216;10.396;2023-07-13T07:22:24;25.30;99.90
2723;DHT22;1369;53.216;10.396;2023-07-13T07:24:52;26.70;99.90
2723;DHT22;1369;53.216;10.396;2023-07-13T07:27:18;28.00;99.90
2723;DHT22;1369;53.216;10.396;2023-07-13T07:29:43;29.10;99.90
2723;DHT22;1369;53.216;10.396;2023-07-13T07:32:09;29.70;99.90
2723;DHT22;1369;53.216;10.396;2023-07-13T07:34:34;29.50;99.90
2723;DHT22;1369;53.216;10.396;2023-07-13T07:37:01;29.70;99.90
2723;DHT22;1369;53.216;10.396;2023-07-13T07:39:27;30.10;99.90
2723;DHT22;1369;53.216;10.396;2023-07-13T07:41:52;29.70;99.90
2723;DHT22;1369;53.216;10.396;2023-07-13T07:44:18;28.50;99.90
2723;DHT22;1369;53.216;10.396;2023-07-13T07:46:44;27.10;99.90
2723;DHT22;1369;53.216;10.396;2023-07-13T07:49:09;26.20;99.90
2723;DHT22;1369;53.216;10.396;2023-07-13T07:51:36;26.30;99.90
2723;DHT22;1369;53.216;10.396;2023-07-13T07:54:01;25.80;99.90
2723;DHT22;1369;53.216;10.396;2023-07-13T07:56:27;26.10;99.90
2723;DHT22;1369;53.216;10.396;2023-07-13T07:58:52;25.70;99.90
2723;DHT22;1369;53.216;10.396;2023-07-13T08:01:18;25.20;99.90
2723;DHT22;1369;53.216;10.396;2023-07-13T08:03:43;24.50;99.90
2723;DHT22;1369;53.216;10.396;2023-07-13T08:06:09;24.00;99.90
2723;DHT22;1369;53.216;10.396;2023-07-13T08:08:35;23.70;99.90
2723;DHT22;1369;53.216;10.396;2023-07-13T08:11:05;23.40;99.90
2723;DHT22;1369;53.216;10.396;2023-07-13T08:13:30;24.90;99.90
2723;DHT22;1369;53.216;10.396;2023-07-13T08:15:56;27.00;99.90
2723;DHT22;1369;53.216;10.396;2023-07-13T08:18:21;29.00;99.90
2723;DHT22;1369;53.216;10.396;2023-07-13T08:20:47;29.40;99.90
2723;DHT22;1369;53.216;10.396;2023-07-13T08:23:12;28.80;99.90
2723;DHT22;1369;53.216;10.396;2023-07-13T08:25:38;27.70;99.90
2723;DHT22;1369;53.216;10.396;2023-07-13T08:28:04;27.60;99.90
2723;DHT22;1369;53.216;10.396;2023-07-13T08:30:30;28.20;99.90
2723;DHT22;1369;53.216;10.396;2023-07-13T08:32:55;28.80;99.90
2723;DHT22;1369;53.216;10.396;2023-07-13T08:35:21;29.70;99.90
2723;DHT22;1369;53.216;10.396;2023-07-13T08:37:47;30.80;99.90
2723;DHT22;1369;53.216;10.396;2023-07-13T08:40:12;31.20;99.90
2723;DHT22;1369;53.216;10.396;2023-07-13T08:45:20;32.10;99.90
2723;DHT22;1369;53.216;10.396;2023-07-13T08:47:51;32.70;99.90
2723;DHT22;1369;53.216;10.396;2023-07-13T08:50:21;33.00;99.90
2723;DHT22;1369;53.216;10.396;2023-07-13T08:52:49;32.10;99.90
2723;DHT22;1369;53.216;10.396;2023-07-13T08:55:20;31.60;99.90
2723;DHT22;1369;53.216;10.396;2023-07-13T08:57:50;31.30;99.90
2723;DHT22;1369;53.216;10.396;2023-07-13T09:00:19;31.10;99.90
2723;DHT22;1369;53.216;10.396;2023-07-13T09:02:50;31.40;99.90
2723;DHT22;1369;53.216;10.396;2023-07-13T09:05:26;31.70;99.90
2723;DHT22;1369;53.216;10.396;2023-07-13T09:08:09;31.70;99.90
2723;DHT22;1369;53.216;10.396;2023-07-13T09:10:49;31.20;99.90
2723;DHT22;1369;53.216;10.396;2023-07-13T09:13:26;30.40;99.90
2723;DHT22;1369;53.216;10.396;2023-07-13T09:15:53;30.40;99.90
2723;DHT22;1369;53.216;10.396;2023-07-13T09:18:36;30.80;99.90
2723;DHT22;1369;53.216;10.396;2023-07-13T09:21:12;30.50;99.90
2723;DHT22;1369;53.216;10.396;2023-07-13T09:23:39;30.30;99.90
2723;DHT22;1369;53.216;10.396;2023-07-13T09:26:20;29.70;99.90
2723;DHT22;1369;53.216;10.396;2023-07-13T09:28:59;29.00;99.90
2723;DHT22;1369;53.216;10.396;2023-07-13T09:31:41;28.50;99.90
2723;DHT22;1369;53.216;10.396;2023-07-13T09:34:12;28.30;99.90
2723;DHT22;1369;53.216;10.396;2023-07-13T09:36:38;28.30;99.90
2723;DHT22;1369;53.216;10.396;2023-07-13T09:39:25;28.30;99.90
2723;DHT22;1369;53.216;10.396;2023-07-13T09:42:15;27.40;99.90
2723;DHT22;1369;53.216;10.396;2023-07-13T09:44:58;27.20;99.90
2723;DHT22;1369;53.216;10.396;2023-07-13T09:47:32;27.60;99.90
2723;DHT22;1369;53.216;10.396;2023-07-13T09:50:10;28.00;99.90
2723;DHT22;1369;53.216;10.396;2023-07-13T09:55:28;27.80;99.90
2723;DHT22;1369;53.216;10.396;2023-07-13T09:57:54;27.20;99.90
2723;DHT22;1369;53.216;10.396;2023-07-13T10:00:29;26.70;99.90
2723;DHT22;1369;53.216;10.396;2023-07-13T10:03:00;26.10;99.90
2723;DHT22;1369;53.216;10.396;2023-07-13T10:05:25;25.50;99.90
2723;DHT22;1369;53.216;10.396;2023-07-13T10:07:51;25.10;99.90
2723;DHT22;1369;53.216;10.396;2023-07-13T10:10:20;24.80;99.90
2723;DHT22;1369;53.216;10.396;2023-07-13T10:12:46;24.60;99.90
2723;DHT22;1369;53.216;10.396;2023-07-13T10:15:19;24.60;99.90
2723;DHT22;1369;53.216;10.396;2023-07-13T10:17:46;24.80;99.90
2723;DHT22;1369;53.216;10.396;2023-07-13T10:20:11;24.70;99.90
2723;DHT22;1369;53.216;10.396;2023-07-13T10:23:02;24.90;99.90
2723;DHT22;1369;53.216;10.396;2023-07-13T10:25:31;25.10;99.90
2723;DHT22;1369;53.216;10.396;2023-07-13T10:28:16;25.40;99.90
2723;DHT22;1369;53.216;10.396;2023-07-13T10:30:47;25.70;99.90
2723;DHT22;1369;53.216;10.396;2023-07-13T10:33:14;25.90;99.90
2723;DHT22;1369;53.216;10.396;2023-07-13T10:35:42;26.00;99.90
2723;DHT22;1369;53.216;10.396;2023-07-13T10:38:19;26.20;99.90
2723;DHT22;1369;53.216;10.396;2023-07-13T10:43:28;26.40;99.90
2723;DHT22;1369;53.216;10.396;2023-07-13T10:45:59;26.50;99.90
2723;DHT22;1369;53.216;10.396;2023-07-13T10:48:26;26.60;99.90
2723;DHT22;1369;53.216;10.396;2023-07-13T10:50:53;26.40;99.90
2723;DHT22;1369;53.216;10.396;2023-07-13T10:53:29;26.40;99.90
2723;DHT22;1369;53.216;10.396;2023-07-13T10:55:59;26.30;99.90
2723;DHT22;1369;53.216;10.396;2023-07-13T10:58:38;26.40;99.90
2723;DHT22;1369;53.216;10.396;2023-07-13T11:01:15;26.20;99.90
2723;DHT22;1369;53.216;10.396;2023-07-13T11:03:48;26.10;99.90
2723;DHT22;1369;53.216;10.396;2023-07-13T11:08:57;25.70;99.90
2723;DHT22;1369;53.216;10.396;2023-07-13T11:11:36;25.90;99.90
2723;DHT22;1369;53.216;10.396;2023-07-13T11:14:05;26.10;99.90
2723;DHT22;1369;53.216;10.396;2023-07-13T11:16:49;26.20;99.90
2723;DHT22;1369;53.216;10.396;2023-07-13T11:19:24;26.20;99.90
2723;DHT22;1369;53.216;10.396;2023-07-13T11:27:38;27.20;99.90
2723;DHT22;1369;53.216;10.396;2023-07-13T11:35:45;26.70;99.90
2723;DHT22;1369;53.216;10.396;2023-07-13T11:38:24;26.80;99.90
2723;DHT22;1369;53.216;10.396;2023-07-13T11:40:54;26.80;99.90
2723;DHT22;1369;53.216;10.396;2023-07-13T11:43:20;26.60;99.90
2723;DHT22;1369;53.216;10.396;2023-07-13T11:45:49;26.80;99.90
2723;DHT22;1369;53.216;10.396;2023-07-13T11:48:34;26.80;99.90
2723;DHT22;1369;53.216;10.396;2023-07-13T11:51:04;26.90;99.90
2723;DHT22;1369;53.216;10.396;2023-07-13T11:53:40;26.90;99.90
2723;DHT22;1369;53.216;10.396;2023-07-13T11:56:06;27.10;99.90
2723;DHT22;1369;53.216;10.396;2023-07-13T11:58:32;27.10;99.90
2723;DHT22;1369;53.216;10.396;2023-07-13T12:01:00;27.10;99.90
2723;DHT22;1369;53.216;10.396;2023-07-13T12:03:28;27.10;99.90
2723;DHT22;1369;53.216;10.396;2023-07-13T12:06:06;27.10;99.90
2723;DHT22;1369;53.216;10.396;2023-07-13T12:08:44;27.10;99.90
2723;DHT22;1369;53.216;10.396;2023-07-13T12:11:16;27.00;99.90
2723;DHT22;1369;53.216;10.396;2023-07-13T12:13:44;26.90;99.90
2723;DHT22;1369;53.216;10.396;2023-07-13T12:16:23;26.80;99.90
2723;DHT22;1369;53.216;10.396;2023-07-13T12:18:53;26.50;99.90
2723;DHT22;1369;53.216;10.396;2023-07-13T12:21:19;26.30;99.90
2723;DHT22;1369;53.216;10.396;2023-07-13T12:23:48;26.20;99.90
2723;DHT22;1369;53.216;10.396;2023-07-13T12:26:15;26.40;99.90
2723;DHT22;1369;53.216;10.396;2023-07-13T12:28:52;26.60;99.90
2723;DHT22;1369;53.216;10.396;2023-07-13T12:31:41;26.90;99.90
2723;DHT22;1369;53.216;10.396;2023-07-13T12:34:15;27.30;99.90
2723;DHT22;1369;53.216;10.396;2023-07-13T12:39:37;27.40;99.90
2723;DHT22;1369;53.216;10.396;2023-07-13T12:42:39;27.20;99.90
2723;DHT22;1369;53.216;10.396;2023-07-13T12:45:19;26.80;99.90
2723;DHT22;1369;53.216;10.396;2023-07-13T12:47:48;26.50;99.90
2723;DHT22;1369;53.216;10.396;2023-07-13T12:50:20;26.10;99.90
2723;DHT22;1369;53.216;10.396;2023-07-13T12:52:54;25.90;99.90
2723;DHT22;1369;53.216;10.396;2023-07-13T12:55:21;25.50;99.90
2723;DHT22;1369;53.216;10.396;2023-07-13T12:57:55;25.00;99.90
2723;DHT22;1369;53.216;10.396;2023-07-13T13:00:35;24.70;99.90
2723;DHT22;1369;53.216;10.396;2023-07-13T13:03:13;24.30;99.90
2723;DHT22;1369;53.216;10.396;2023-07-13T13:05:43;23.80;99.90
2723;DHT22;1369;53.216;10.396;2023-07-13T13:08:13;23.20;99.90
2723;DHT22;1369;53.216;10.396;2023-07-13T13:10:39;22.60;99.90
2723;DHT22;1369;53.216;10.396;2023-07-13T13:13:04;22.00;99.90
2723;DHT22;1369;53.216;10.396;2023-07-13T13:15:30;21.50;99.90
2723;DHT22;1369;53.216;10.396;2023-07-13T13:17:56;21.20;99.90
2723;DHT22;1369;53.216;10.396;2023-07-13T13:20:24;20.90;99.90
2723;DHT22;1369;53.216;10.396;2023-07-13T13:22:51;20.70;99.90
2723;DHT22;1369;53.216;10.396;2023-07-13T13:25:17;20.60;99.90
2723;DHT22;1369;53.216;10.396;2023-07-13T13:27:44;20.50;99.90
2723;DHT22;1369;53.216;10.396;2023-07-13T13:32:39;20.80;99.90
2723;DHT22;1369;53.216;10.396;2023-07-13T13:35:05;21.10;99.90
2723;DHT22;1369;53.216;10.396;2023-07-13T13:37:31;21.50;99.90
2723;DHT22;1369;53.216;10.396;2023-07-13T13:39:57;21.80;99.90
2723;DHT22;1369;53.216;10.396;2023-07-13T13:42:22;22.10;99.90
2723;DHT22;1369;53.216;10.396;2023-07-13T13:44:50;22.20;99.90
2723;DHT22;1369;53.216;10.396;2023-07-13T13:47:30;22.30;99.90
2723;DHT22;1369;53.216;10.396;2023-07-13T13:49:56;22.20;99.90
2723;DHT22;1369;53.216;10.396;2023-07-13T13:52:22;22.20;99.90
2723;DHT22;1369;53.216;10.396;2023-07-13T13:54:47;22.30;99.90
2723;DHT22;1369;53.216;10.396;2023-07-13T13:57:13;22.40;99.90
2723;DHT22;1369;53.216;10.396;2023-07-13T13:59:39;22.40;99.90
2723;DHT22;1369;53.216;10.396;2023-07-13T14:02:27;22.30;99.90
2723;DHT22;1369;53.216;10.396;2023-07-13T14:04:59;22.20;99.90
2723;DHT22;1369;53.216;10.396;2023-07-13T14:07:25;22.00;99.90
2723;DHT22;1369;53.216;10.396;2023-07-13T14:09:57;22.00;99.90
2723;DHT22;1369;53.216;10.396;2023-07-13T14:12:22;22.00;99.90
2723;DHT22;1369;53.216;10.396;2023-07-13T14:14:51;22.00;99.90
2723;DHT22;1369;53.216;10.396;2023-07-13T14:17:22;22.00;99.90
2723;DHT22;1369;53.216;10.396;2023-07-13T14:19:50;22.10;99.90
2723;DHT22;1369;53.216;10.396;2023-07-13T14:22:17;22.00;99.90
2723;DHT22;1369;53.216;10.396;2023-07-13T14:24:43;22.00;99.90
2723;DHT22;1369;53.216;10.396;2023-07-13T14:27:10;22.00;99.90
2723;DHT22;1369;53.216;10.396;2023-07-13T14:29:36;22.10;99.90
2723;DHT22;1369;53.216;10.396;2023-07-13T14:32:02;22.10;99.90
2723;DHT22;1369;53.216;10.396;2023-07-13T14:34:27;22.20;99.90
2723;DHT22;1369;53.216;10.396;2023-07-13T14:36:53;22.20;99.90
2723;DHT22;1369;53.216;10.396;2023-07-13T14:39:23;22.20;99.90
2723;DHT22;1369;53.216;10.396;2023-07-13T14:41:54;22.20;99.90
2723;DHT22;1369;53.216;10.396;2023-07-13T14:44:26;22.20;99.90
2723;DHT22;1369;53.216;10.396;2023-07-13T14:46:54;22.10;99.90
2723;DHT22;1369;53.216;10.396;2023-07-13T14:49:36;22.00;99.90
2723;DHT22;1369;53.216;10.396;2023-07-13T14:52:14;22.00;99.90
2723;DHT22;1369;53.216;10.396;2023-07-13T14:54:41;22.00;99.90
2723;DHT22;1369;53.216;10.396;2023-07-13T14:57:10;22.00;99.90
2723;DHT22;1369;53.216;10.396;2023-07-13T14:59:36;21.90;99.90
2723;DHT22;1369;53.216;10.396;2023-07-13T15:02:01;21.90;99.90
2723;DHT22;1369;53.216;10.396;2023-07-13T15:04:27;22.00;99.90
2723;DHT22;1369;53.216;10.396;2023-07-13T15:07:01;22.00;99.90
2723;DHT22;1369;53.216;10.396;2023-07-13T15:09:28;22.00;99.90
2723;DHT22;1369;53.216;10.396;2023-07-13T15:11:55;22.00;99.90
2723;DHT22;1369;53.216;10.396;2023-07-13T15:14:21;21.90;99.90
2723;DHT22;1369;53.216;10.396;2023-07-13T15:16:49;21.90;99.90
2723;DHT22;1369;53.216;10.396;2023-07-13T15:19:16;21.80;99.90
2723;DHT22;1369;53.216;10.396;2023-07-13T15:21:42;21.90;99.90
2723;DHT22;1369;53.216;10.396;2023-07-13T15:24:10;22.00;99.90
2723;DHT22;1369;53.216;10.396;2023-07-13T15:26:36;22.00;99.90
2723;DHT22;1369;53.216;10.396;2023-07-13T15:29:02;22.00;99.90
2723;DHT22;1369;53.216;10.396;2023-07-13T15:31:28;22.00;99.90
2723;DHT22;1369;53.216;10.396;2023-07-13T15:33:55;22.00;99.90
2723;DHT22;1369;53.216;10.396;2023-07-13T15:36:23;21.90;99.90
2723;DHT22;1369;53.216;10.396;2023-07-13T15:38:50;21.90;99.90
2723;DHT22;1369;53.216;10.396;2023-07-13T15:41:25;21.80;99.90
2723;DHT22;1369;53.216;10.396;2023-07-13T15:43:54;21.90;99.90
2723;DHT22;1369;53.216;10.396;2023-07-13T15:46:21;22.00;99.90
2723;DHT22;1369;53.216;10.396;2023-07-13T15:48:52;22.00;99.90
2723;DHT22;1369;53.216;10.396;2023-07-13T15:53:47;22.10;99.90
2723;DHT22;1369;53.216;10.396;2023-07-13T15:56:19;22.10;99.90
2723;DHT22;1369;53.216;10.396;2023-07-13T15:58:45;22.20;99.90
2723;DHT22;1369;53.216;10.396;2023-07-13T16:01:11;22.30;99.90
2723;DHT22;1369;53.216;10.396;2023-07-13T16:03:37;22.40;99.90
2723;DHT22;1369;53.216;10.396;2023-07-13T16:06:03;22.40;99.90
2723;DHT22;1369;53.216;10.396;2023-07-13T16:08:31;22.40;99.90
2723;DHT22;1369;53.216;10.396;2023-07-13T16:10:59;22.30;99.90
2723;DHT22;1369;53.216;10.396;2023-07-13T16:13:25;22.10;99.90
2723;DHT22;1369;53.216;10.396;2023-07-13T16:15:52;22.10;99.90
2723;DHT22;1369;53.216;10.396;2023-07-13T16:18:18;22.00;99.90
2723;DHT22;1369;53.216;10.396;2023-07-13T16:20:45;22.00;99.90
2723;DHT22;1369;53.216;10.396;2023-07-13T16:23:12;21.90;99.90
2723;DHT22;1369;53.216;10.396;2023-07-13T16:25:39;21.90;99.90
2723;DHT22;1369;53.216;10.396;2023-07-13T16:28:05;21.90;99.90